sensor_id;sensor_type;location;lat;lon;timestamp;P1;durP1;ratioP1;P2;durP2;ratioP2
45296;SDS011;31040;51.622;10.420;2022-09-09T00:09:22;2.83;;;2.28;;
45296;SDS011;31040;51.622;10.420;2022-09-09T00:11:53;3.90;;;2.17;;
45296;SDS011;31040;51.622;10.420;2022-09-09T00:14:25;2.20;;;2.00;;
45296;SDS011;31040;51.622;10.420;2022-09-09T00:16:56;2.50;;;2.30;;
45296;SDS011;31040;51.622;10.420;2022-09-09T00:19:31;3.13;;;1.90;;
45296;SDS011;31040;51.622;10.420;2022-09-09T00:24:33;3.45;;;2.33;;
45296;SDS011;31040;51.622;10.420;2022-09-09T00:27:11;3.05;;;2.30;;
45296;SDS011;31040;51.622;10.420;2022-09-09T00:32:16;2.75;;;2.40;;
45296;SDS011;31040;51.622;10.420;2022-09-09T00:35:01;4.88;;;2.78;;
45296;SDS011;31040;51.622;10.420;2022-09-09T00:37:28;6.00;;;3.60;;
45296;SDS011;31040;51.622;10.420;2022-09-09T00:39:59;2.95;;;2.55;;
45296;SDS011;31040;51.622;10.420;2022-09-09T00:42:31;3.63;;;2.40;;
45296;SDS011;31040;51.622;10.420;2022-09-09T00:45:25;5.35;;;3.10;;
45296;SDS011;31040;51.622;10.420;2022-09-09T00:47:56;2.47;;;2.03;;
45296;SDS011;31040;51.622;10.420;2022-09-09T00:53:05;3.53;;;2.40;;
45296;SDS011;31040;51.622;10.420;2022-09-09T00:58:07;3.40;;;2.20;;
45296;SDS011;31040;51.622;10.420;2022-09-09T01:00:44;2.72;;;2.47;;
45296;SDS011;31040;51.622;10.420;2022-09-09T01:03:20;3.47;;;2.35;;
45296;SDS011;31040;51.622;10.420;2022-09-09T01:06:00;2.60;;;2.10;;
45296;SDS011;31040;51.622;10.420;2022-09-09T01:11:25;2.58;;;2.03;;
45296;SDS011;31040;51.622;10.420;2022-09-09T01:14:05;8.15;;;2.20;;
45296;SDS011;31040;51.622;10.420;2022-09-09T01:16:37;5.20;;;2.50;;
45296;SDS011;31040;51.622;10.420;2022-09-09T01:19:05;3.35;;;2.60;;
45296;SDS011;31040;51.622;10.420;2022-09-09T01:24:22;5.63;;;3.13;;
45296;SDS011;31040;51.622;10.420;2022-09-09T01:26:54;5.28;;;3.03;;
45296;SDS011;31040;51.622;10.420;2022-09-09T01:29:24;4.88;;;3.33;;
45296;SDS011;31040;51.622;10.420;2022-09-09T01:31:58;4.05;;;2.65;;
45296;SDS011;31040;51.622;10.420;2022-09-09T01:34:31;3.95;;;3.03;;
45296;SDS011;31040;51.622;10.420;2022-09-09T01:37:09;2.75;;;2.55;;
45296;SDS011;31040;51.622;10.420;2022-09-09T01:39:37;2.47;;;2.22;;
45296;SDS011;31040;51.622;10.420;2022-09-09T01:42:06;4.20;;;2.50;;
45296;SDS011;31040;51.622;10.420;2022-09-09T01:44:35;3.45;;;2.30;;
45296;SDS011;31040;51.622;10.420;2022-09-09T01:47:02;4.93;;;2.40;;
45296;SDS011;31040;51.622;10.420;2022-09-09T01:49:30;3.22;;;2.42;;
45296;SDS011;31040;51.622;10.420;2022-09-09T01:51:58;3.15;;;2.72;;
45296;SDS011;31040;51.622;10.420;2022-09-09T01:54:28;3.38;;;2.45;;
45296;SDS011;31040;51.622;10.420;2022-09-09T02:04:49;3.45;;;2.50;;
45296;SDS011;31040;51.622;10.420;2022-09-09T02:09:45;3.30;;;2.17;;
45296;SDS011;31040;51.622;10.420;2022-09-09T02:12:14;3.47;;;2.85;;
45296;SDS011;31040;51.622;10.420;2022-09-09T02:14:47;2.50;;;2.30;;
45296;SDS011;31040;51.622;10.420;2022-09-09T02:17:17;5.68;;;2.55;;
45296;SDS011;31040;51.622;10.420;2022-09-09T02:19:48;3.08;;;2.55;;
45296;SDS011;31040;51.622;10.420;2022-09-09T02:22:17;2.90;;;2.08;;
45296;SDS011;31040;51.622;10.420;2022-09-09T02:24:46;4.35;;;2.30;;
45296;SDS011;31040;51.622;10.420;2022-09-09T02:27:14;5.32;;;2.35;;
45296;SDS011;31040;51.622;10.420;2022-09-09T02:29:42;2.92;;;2.30;;
45296;SDS011;31040;51.622;10.420;2022-09-09T02:32:14;2.58;;;2.38;;
45296;SDS011;31040;51.622;10.420;2022-09-09T02:34:43;3.63;;;2.38;;
45296;SDS011;31040;51.622;10.420;2022-09-09T02:37:12;4.45;;;2.45;;
45296;SDS011;31040;51.622;10.420;2022-09-09T02:39:40;7.78;;;4.28;;
45296;SDS011;31040;51.622;10.420;2022-09-09T02:42:08;4.18;;;3.15;;
45296;SDS011;31040;51.622;10.420;2022-09-09T02:44:35;2.60;;;2.40;;
45296;SDS011;31040;51.622;10.420;2022-09-09T02:52:20;7.85;;;3.15;;
45296;SDS011;31040;51.622;10.420;2022-09-09T02:54:54;3.85;;;2.90;;
45296;SDS011;31040;51.622;10.420;2022-09-09T02:57:26;5.00;;;3.22;;
45296;SDS011;31040;51.622;10.420;2022-09-09T02:59:57;5.28;;;2.60;;
45296;SDS011;31040;51.622;10.420;2022-09-09T03:02:24;3.55;;;2.55;;
45296;SDS011;31040;51.622;10.420;2022-09-09T03:04:52;5.03;;;2.75;;
45296;SDS011;31040;51.622;10.420;2022-09-09T03:07:19;3.33;;;2.15;;
45296;SDS011;31040;51.622;10.420;2022-09-09T03:09:47;4.05;;;2.53;;
45296;SDS011;31040;51.622;10.420;2022-09-09T03:12:15;5.95;;;2.20;;
45296;SDS011;31040;51.622;10.420;2022-09-09T03:14:42;3.75;;;2.47;;
45296;SDS011;31040;51.622;10.420;2022-09-09T03:17:12;4.22;;;2.83;;
45296;SDS011;31040;51.622;10.420;2022-09-09T03:19:39;3.80;;;2.33;;
45296;SDS011;31040;51.622;10.420;2022-09-09T03:22:09;5.10;;;2.20;;
45296;SDS011;31040;51.622;10.420;2022-09-09T03:24:36;4.93;;;2.58;;
45296;SDS011;31040;51.622;10.420;2022-09-09T03:27:04;5.28;;;2.53;;
45296;SDS011;31040;51.622;10.420;2022-09-09T03:29:31;5.55;;;2.78;;
45296;SDS011;31040;51.622;10.420;2022-09-09T03:31:59;5.45;;;2.33;;
45296;SDS011;31040;51.622;10.420;2022-09-09T03:34:26;4.32;;;2.75;;
45296;SDS011;31040;51.622;10.420;2022-09-09T03:36:53;3.80;;;2.20;;
45296;SDS011;31040;51.622;10.420;2022-09-09T03:39:22;4.10;;;2.20;;
45296;SDS011;31040;51.622;10.420;2022-09-09T03:41:49;4.18;;;2.50;;
45296;SDS011;31040;51.622;10.420;2022-09-09T03:44:16;3.45;;;2.78;;
45296;SDS011;31040;51.622;10.420;2022-09-09T03:46:44;6.20;;;2.78;;
45296;SDS011;31040;51.622;10.420;2022-09-09T03:49:12;3.67;;;2.50;;
45296;SDS011;31040;51.622;10.420;2022-09-09T03:51:39;3.35;;;2.58;;
45296;SDS011;31040;51.622;10.420;2022-09-09T03:54:06;7.07;;;2.90;;
45296;SDS011;31040;51.622;10.420;2022-09-09T03:56:36;6.80;;;3.00;;
45296;SDS011;31040;51.622;10.420;2022-09-09T03:59:03;4.55;;;2.83;;
45296;SDS011;31040;51.622;10.420;2022-09-09T04:01:31;5.30;;;3.17;;
45296;SDS011;31040;51.622;10.420;2022-09-09T04:03:58;4.35;;;2.67;;
45296;SDS011;31040;51.622;10.420;2022-09-09T04:06:26;5.35;;;3.15;;
45296;SDS011;31040;51.622;10.420;2022-09-09T04:08:54;5.72;;;2.80;;
45296;SDS011;31040;51.622;10.420;2022-09-09T04:11:21;3.97;;;2.72;;
45296;SDS011;31040;51.622;10.420;2022-09-09T04:13:49;6.13;;;3.05;;
45296;SDS011;31040;51.622;10.420;2022-09-09T04:16:17;3.08;;;2.78;;
45296;SDS011;31040;51.622;10.420;2022-09-09T04:18:45;6.22;;;3.10;;
45296;SDS011;31040;51.622;10.420;2022-09-09T04:21:12;5.63;;;3.20;;
45296;SDS011;31040;51.622;10.420;2022-09-09T04:23:39;4.63;;;3.03;;
45296;SDS011;31040;51.622;10.420;2022-09-09T04:26:07;4.32;;;3.10;;
45296;SDS011;31040;51.622;10.420;2022-09-09T04:28:36;5.97;;;3.75;;
45296;SDS011;31040;51.622;10.420;2022-09-09T04:31:07;3.30;;;3.00;;
45296;SDS011;31040;51.622;10.420;2022-09-09T04:33:35;5.18;;;3.08;;
45296;SDS011;31040;51.622;10.420;2022-09-09T04:36:06;3.33;;;2.97;;
45296;SDS011;31040;51.622;10.420;2022-09-09T04:38:33;6.28;;;3.05;;
45296;SDS011;31040;51.622;10.420;2022-09-09T04:41:01;7.20;;;3.40;;
45296;SDS011;31040;51.622;10.420;2022-09-09T04:43:28;4.97;;;3.42;;
45296;SDS011;31040;51.622;10.420;2022-09-09T04:45:57;5.28;;;3.85;;
45296;SDS011;31040;51.622;10.420;2022-09-09T04:48:30;3.95;;;3.00;;
45296;SDS011;31040;51.622;10.420;2022-09-09T04:50:58;4.95;;;3.20;;
45296;SDS011;31040;51.622;10.420;2022-09-09T04:53:26;7.18;;;3.40;;
45296;SDS011;31040;51.622;10.420;2022-09-09T04:56:00;5.43;;;3.42;;
45296;SDS011;31040;51.622;10.420;2022-09-09T04:58:28;6.13;;;3.53;;
45296;SDS011;31040;51.622;10.420;2022-09-09T05:01:02;5.38;;;3.00;;
45296;SDS011;31040;51.622;10.420;2022-09-09T05:03:30;4.45;;;2.75;;
45296;SDS011;31040;51.622;10.420;2022-09-09T05:06:04;6.20;;;2.60;;
45296;SDS011;31040;51.622;10.420;2022-09-09T05:08:32;3.78;;;2.92;;
45296;SDS011;31040;51.622;10.420;2022-09-09T05:10:59;4.82;;;2.65;;
45296;SDS011;31040;51.622;10.420;2022-09-09T05:13:27;3.05;;;2.63;;
45296;SDS011;31040;51.622;10.420;2022-09-09T05:15:54;3.78;;;2.50;;
45296;SDS011;31040;51.622;10.420;2022-09-09T05:18:22;6.20;;;2.67;;
45296;SDS011;31040;51.622;10.420;2022-09-09T05:20:49;3.80;;;2.47;;
45296;SDS011;31040;51.622;10.420;2022-09-09T05:23:17;4.50;;;2.83;;
45296;SDS011;31040;51.622;10.420;2022-09-09T05:25:53;4.50;;;2.78;;
45296;SDS011;31040;51.622;10.420;2022-09-09T05:28:21;3.78;;;2.53;;
45296;SDS011;31040;51.622;10.420;2022-09-09T05:30:58;4.32;;;3.15;;
45296;SDS011;31040;51.622;10.420;2022-09-09T05:33:27;5.05;;;2.75;;
45296;SDS011;31040;51.622;10.420;2022-09-09T05:35:58;3.40;;;2.67;;
45296;SDS011;31040;51.622;10.420;2022-09-09T05:38:26;5.60;;;2.95;;
45296;SDS011;31040;51.622;10.420;2022-09-09T05:40:54;4.18;;;2.90;;
45296;SDS011;31040;51.622;10.420;2022-09-09T05:43:23;4.45;;;2.20;;
45296;SDS011;31040;51.622;10.420;2022-09-09T05:46:04;4.43;;;3.45;;
45296;SDS011;31040;51.622;10.420;2022-09-09T05:48:33;3.53;;;3.00;;
45296;SDS011;31040;51.622;10.420;2022-09-09T05:51:00;2.75;;;2.47;;
45296;SDS011;31040;51.622;10.420;2022-09-09T05:53:29;3.78;;;2.58;;
45296;SDS011;31040;51.622;10.420;2022-09-09T05:56:07;5.47;;;2.83;;
45296;SDS011;31040;51.622;10.420;2022-09-09T05:58:37;5.35;;;2.55;;
45296;SDS011;31040;51.622;10.420;2022-09-09T06:01:05;3.65;;;2.65;;
45296;SDS011;31040;51.622;10.420;2022-09-09T06:03:34;3.88;;;3.20;;
45296;SDS011;31040;51.622;10.420;2022-09-09T06:06:06;3.58;;;2.65;;
45296;SDS011;31040;51.622;10.420;2022-09-09T06:08:34;4.57;;;3.33;;
45296;SDS011;31040;51.622;10.420;2022-09-09T06:11:06;3.83;;;2.75;;
45296;SDS011;31040;51.622;10.420;2022-09-09T06:13:33;7.28;;;3.60;;
45296;SDS011;31040;51.622;10.420;2022-09-09T06:16:01;4.30;;;2.47;;
45296;SDS011;31040;51.622;10.420;2022-09-09T06:18:28;3.35;;;3.05;;
45296;SDS011;31040;51.622;10.420;2022-09-09T06:21:03;3.75;;;3.33;;
45296;SDS011;31040;51.622;10.420;2022-09-09T06:23:30;5.10;;;3.35;;
45296;SDS011;31040;51.622;10.420;2022-09-09T06:26:05;3.45;;;3.15;;
45296;SDS011;31040;51.622;10.420;2022-09-09T06:28:33;8.25;;;3.72;;
45296;SDS011;31040;51.622;10.420;2022-09-09T06:31:02;3.38;;;3.08;;
45296;SDS011;31040;51.622;10.420;2022-09-09T06:33:31;6.35;;;3.35;;
45296;SDS011;31040;51.622;10.420;2022-09-09T06:36:01;6.70;;;3.42;;
45296;SDS011;31040;51.622;10.420;2022-09-09T06:38:30;3.72;;;3.05;;
45296;SDS011;31040;51.622;10.420;2022-09-09T06:40:58;3.85;;;3.40;;
45296;SDS011;31040;51.622;10.420;2022-09-09T06:43:26;3.60;;;3.28;;
45296;SDS011;31040;51.622;10.420;2022-09-09T06:46:00;6.25;;;3.60;;
45296;SDS011;31040;51.622;10.420;2022-09-09T06:48:30;5.75;;;3.67;;
45296;SDS011;31040;51.622;10.420;2022-09-09T06:53:28;4.43;;;3.47;;
45296;SDS011;31040;51.622;10.420;2022-09-09T06:55:57;4.25;;;3.85;;
45296;SDS011;31040;51.622;10.420;2022-09-09T06:58:24;7.22;;;4.47;;
45296;SDS011;31040;51.622;10.420;2022-09-09T07:00:52;6.35;;;3.97;;
45296;SDS011;31040;51.622;10.420;2022-09-09T07:03:19;8.32;;;3.92;;
45296;SDS011;31040;51.622;10.420;2022-09-09T07:05:53;7.88;;;4.22;;
45296;SDS011;31040;51.622;10.420;2022-09-09T07:08:21;4.40;;;3.50;;
45296;SDS011;31040;51.622;10.420;2022-09-09T07:10:49;6.97;;;4.15;;
45296;SDS011;31040;51.622;10.420;2022-09-09T07:13:17;4.50;;;4.10;;
45296;SDS011;31040;51.622;10.420;2022-09-09T07:15:46;5.95;;;3.60;;
45296;SDS011;31040;51.622;10.420;2022-09-09T07:18:16;4.63;;;4.13;;
45296;SDS011;31040;51.622;10.420;2022-09-09T07:20:52;6.15;;;3.70;;
45296;SDS011;31040;51.622;10.420;2022-09-09T07:23:20;6.95;;;4.25;;
45296;SDS011;31040;51.622;10.420;2022-09-09T07:25:47;7.97;;;4.28;;
45296;SDS011;31040;51.622;10.420;2022-09-09T07:28:14;6.57;;;4.15;;
45296;SDS011;31040;51.622;10.420;2022-09-09T07:30:52;6.10;;;5.00;;
45296;SDS011;31040;51.622;10.420;2022-09-09T07:33:19;5.63;;;3.55;;
45296;SDS011;31040;51.622;10.420;2022-09-09T07:35:47;6.35;;;3.20;;
45296;SDS011;31040;51.622;10.420;2022-09-09T07:38:14;4.25;;;2.85;;
45296;SDS011;31040;51.622;10.420;2022-09-09T07:40:42;9.57;;;2.92;;
45296;SDS011;31040;51.622;10.420;2022-09-09T07:43:09;6.15;;;2.30;;
45296;SDS011;31040;51.622;10.420;2022-09-09T07:45:42;5.68;;;2.70;;
45296;SDS011;31040;51.622;10.420;2022-09-09T07:48:09;7.45;;;2.22;;
45296;SDS011;31040;51.622;10.420;2022-09-09T07:50:37;3.05;;;1.70;;
45296;SDS011;31040;51.622;10.420;2022-09-09T07:53:05;4.07;;;2.00;;
45296;SDS011;31040;51.622;10.420;2022-09-09T07:55:33;5.32;;;2.15;;
45296;SDS011;31040;51.622;10.420;2022-09-09T07:58:00;6.18;;;1.95;;
45296;SDS011;31040;51.622;10.420;2022-09-09T08:00:28;2.63;;;1.98;;
45296;SDS011;31040;51.622;10.420;2022-09-09T08:02:59;5.70;;;1.95;;
45296;SDS011;31040;51.622;10.420;2022-09-09T08:05:28;3.15;;;1.52;;
45296;SDS011;31040;51.622;10.420;2022-09-09T08:07:55;3.75;;;1.55;;
45296;SDS011;31040;51.622;10.420;2022-09-09T08:10:23;4.07;;;1.67;;
45296;SDS011;31040;51.622;10.420;2022-09-09T08:12:50;4.32;;;1.50;;
45296;SDS011;31040;51.622;10.420;2022-09-09T08:15:38;4.50;;;1.58;;
45296;SDS011;31040;51.622;10.420;2022-09-09T08:18:07;2.65;;;1.63;;
45296;SDS011;31040;51.622;10.420;2022-09-09T08:20:35;3.50;;;1.15;;
45296;SDS011;31040;51.622;10.420;2022-09-09T08:23:03;6.97;;;2.13;;
45296;SDS011;31040;51.622;10.420;2022-09-09T08:25:31;2.75;;;1.40;;
45296;SDS011;31040;51.622;10.420;2022-09-09T08:27:58;2.08;;;1.40;;
45296;SDS011;31040;51.622;10.420;2022-09-09T08:30:26;3.13;;;1.55;;
45296;SDS011;31040;51.622;10.420;2022-09-09T08:32:53;2.15;;;1.27;;
45296;SDS011;31040;51.622;10.420;2022-09-09T08:35:21;2.53;;;1.13;;
45296;SDS011;31040;51.622;10.420;2022-09-09T08:37:48;5.30;;;1.45;;
45296;SDS011;31040;51.622;10.420;2022-09-09T08:40:19;4.13;;;1.77;;
45296;SDS011;31040;51.622;10.420;2022-09-09T08:42:49;4.45;;;1.95;;
45296;SDS011;31040;51.622;10.420;2022-09-09T08:45:29;3.17;;;1.30;;
45296;SDS011;31040;51.622;10.420;2022-09-09T08:50:44;2.00;;;1.30;;
45296;SDS011;31040;51.622;10.420;2022-09-09T08:53:37;3.30;;;1.05;;
45296;SDS011;31040;51.622;10.420;2022-09-09T08:56:09;2.90;;;1.15;;
45296;SDS011;31040;51.622;10.420;2022-09-09T08:58:56;7.15;;;1.40;;
45296;SDS011;31040;51.622;10.420;2022-09-09T09:01:41;4.82;;;1.20;;
45296;SDS011;31040;51.622;10.420;2022-09-09T09:10:05;3.83;;;1.27;;
45296;SDS011;31040;51.622;10.420;2022-09-09T09:12:59;2.13;;;1.05;;
45296;SDS011;31040;51.622;10.420;2022-09-09T09:15:33;1.70;;;0.95;;
45296;SDS011;31040;51.622;10.420;2022-09-09T09:18:04;2.60;;;1.10;;
45296;SDS011;31040;51.622;10.420;2022-09-09T09:20:43;3.10;;;1.30;;
45296;SDS011;31040;51.622;10.420;2022-09-09T09:23:16;2.90;;;1.40;;
45296;SDS011;31040;51.622;10.420;2022-09-09T09:25:46;4.43;;;1.23;;
45296;SDS011;31040;51.622;10.420;2022-09-09T09:28:18;4.70;;;1.60;;
45296;SDS011;31040;51.622;10.420;2022-09-09T09:35:50;2.35;;;1.17;;
45296;SDS011;31040;51.622;10.420;2022-09-09T09:41:06;4.55;;;1.70;;
45296;SDS011;31040;51.622;10.420;2022-09-09T09:43:34;2.92;;;1.65;;
45296;SDS011;31040;51.622;10.420;2022-09-09T09:46:05;4.97;;;1.38;;
45296;SDS011;31040;51.622;10.420;2022-09-09T09:48:55;2.80;;;1.40;;
45296;SDS011;31040;51.622;10.420;2022-09-09T09:51:23;2.22;;;1.17;;
45296;SDS011;31040;51.622;10.420;2022-09-09T09:53:51;2.40;;;1.35;;
45296;SDS011;31040;51.622;10.420;2022-09-09T09:56:26;7.18;;;2.30;;
45296;SDS011;31040;51.622;10.420;2022-09-09T09:58:58;7.60;;;1.98;;
45296;SDS011;31040;51.622;10.420;2022-09-09T10:01:34;3.92;;;1.40;;
45296;SDS011;31040;51.622;10.420;2022-09-09T10:04:12;2.00;;;1.15;;
45296;SDS011;31040;51.622;10.420;2022-09-09T10:06:42;4.45;;;1.55;;
45296;SDS011;31040;51.622;10.420;2022-09-09T10:09:25;4.32;;;1.92;;
45296;SDS011;31040;51.622;10.420;2022-09-09T10:19:38;8.73;;;3.25;;
45296;SDS011;31040;51.622;10.420;2022-09-09T10:22:14;6.22;;;2.92;;
45296;SDS011;31040;51.622;10.420;2022-09-09T10:30:10;5.18;;;1.85;;
45296;SDS011;31040;51.622;10.420;2022-09-09T10:40:21;3.92;;;1.80;;
45296;SDS011;31040;51.622;10.420;2022-09-09T10:51:11;2.28;;;1.92;;
45296;SDS011;31040;51.622;10.420;2022-09-09T10:56:16;2.97;;;2.08;;
45296;SDS011;31040;51.622;10.420;2022-09-09T10:58:48;2.65;;;1.60;;
45296;SDS011;31040;51.622;10.420;2022-09-09T11:01:22;3.38;;;1.88;;
45296;SDS011;31040;51.622;10.420;2022-09-09T11:04:25;3.55;;;1.60;;
45296;SDS011;31040;51.622;10.420;2022-09-09T11:06:45;5.38;;;2.15;;
45296;SDS011;31040;51.622;10.420;2022-09-09T11:09:15;4.25;;;1.90;;
45296;SDS011;31040;51.622;10.420;2022-09-09T11:11:49;4.45;;;2.00;;
45296;SDS011;31040;51.622;10.420;2022-09-09T11:14:19;3.40;;;1.90;;
45296;SDS011;31040;51.622;10.420;2022-09-09T11:16:58;1.70;;;1.55;;
45296;SDS011;31040;51.622;10.420;2022-09-09T11:19:33;3.42;;;1.70;;
45296;SDS011;31040;51.622;10.420;2022-09-09T11:24:51;4.60;;;1.95;;
45296;SDS011;31040;51.622;10.420;2022-09-09T11:27:25;2.75;;;1.40;;
45296;SDS011;31040;51.622;10.420;2022-09-09T11:38:06;4.07;;;1.00;;
45296;SDS011;31040;51.622;10.420;2022-09-09T11:40:38;2.72;;;1.17;;
45296;SDS011;31040;51.622;10.420;2022-09-09T11:45:39;3.55;;;1.20;;
45296;SDS011;31040;51.622;10.420;2022-09-09T11:48:23;2.17;;;1.20;;
45296;SDS011;31040;51.622;10.420;2022-09-09T11:51:03;3.10;;;1.10;;
45296;SDS011;31040;51.622;10.420;2022-09-09T11:53:31;2.40;;;1.00;;
45296;SDS011;31040;51.622;10.420;2022-09-09T11:56:02;2.25;;;0.93;;
45296;SDS011;31040;51.622;10.420;2022-09-09T11:58:36;2.72;;;1.10;;
45296;SDS011;31040;51.622;10.420;2022-09-09T12:01:15;3.22;;;1.02;;
45296;SDS011;31040;51.622;10.420;2022-09-09T12:03:44;5.03;;;1.20;;
45296;SDS011;31040;51.622;10.420;2022-09-09T12:08:42;1.67;;;0.88;;
45296;SDS011;31040;51.622;10.420;2022-09-09T12:11:11;2.15;;;1.25;;
45296;SDS011;31040;51.622;10.420;2022-09-09T12:13:38;4.10;;;1.05;;
45296;SDS011;31040;51.622;10.420;2022-09-09T12:16:26;3.30;;;1.10;;
45296;SDS011;31040;51.622;10.420;2022-09-09T12:19:02;3.03;;;1.02;;
45296;SDS011;31040;51.622;10.420;2022-09-09T12:21:35;2.13;;;1.10;;
45296;SDS011;31040;51.622;10.420;2022-09-09T12:24:12;2.20;;;1.00;;
45296;SDS011;31040;51.622;10.420;2022-09-09T12:26:55;2.78;;;0.80;;
45296;SDS011;31040;51.622;10.420;2022-09-09T12:29:36;3.40;;;1.05;;
45296;SDS011;31040;51.622;10.420;2022-09-09T12:34:42;3.50;;;0.93;;
45296;SDS011;31040;51.622;10.420;2022-09-09T12:39:42;0.80;;;0.60;;
45296;SDS011;31040;51.622;10.420;2022-09-09T12:42:18;2.00;;;1.20;;
45296;SDS011;31040;51.622;10.420;2022-09-09T12:47:14;6.55;;;1.40;;
45296;SDS011;31040;51.622;10.420;2022-09-09T12:49:41;3.17;;;0.80;;
45296;SDS011;31040;51.622;10.420;2022-09-09T12:52:21;1.23;;;0.60;;
45296;SDS011;31040;51.622;10.420;2022-09-09T12:54:51;3.83;;;1.25;;
45296;SDS011;31040;51.622;10.420;2022-09-09T12:57:20;3.25;;;0.80;;
45296;SDS011;31040;51.622;10.420;2022-09-09T12:59:51;1.63;;;0.68;;
45296;SDS011;31040;51.622;10.420;2022-09-09T13:02:26;8.70;;;1.38;;
45296;SDS011;31040;51.622;10.420;2022-09-09T13:05:05;2.70;;;0.90;;
45296;SDS011;31040;51.622;10.420;2022-09-09T13:07:33;2.05;;;1.13;;
45296;SDS011;31040;51.622;10.420;2022-09-09T13:10:00;6.65;;;0.80;;
45296;SDS011;31040;51.622;10.420;2022-09-09T13:12:28;2.03;;;1.10;;
45296;SDS011;31040;51.622;10.420;2022-09-09T13:14:55;2.08;;;1.08;;
45296;SDS011;31040;51.622;10.420;2022-09-09T13:17:24;2.60;;;0.85;;
45296;SDS011;31040;51.622;10.420;2022-09-09T13:19:52;2.53;;;1.05;;
45296;SDS011;31040;51.622;10.420;2022-09-09T13:22:21;2.38;;;1.00;;
45296;SDS011;31040;51.622;10.420;2022-09-09T13:24:58;3.50;;;1.00;;
45296;SDS011;31040;51.622;10.420;2022-09-09T13:27:36;2.83;;;0.85;;
45296;SDS011;31040;51.622;10.420;2022-09-09T13:30:24;2.55;;;0.80;;
45296;SDS011;31040;51.622;10.420;2022-09-09T13:35:32;2.63;;;0.90;;
45296;SDS011;31040;51.622;10.420;2022-09-09T13:38:06;2.03;;;0.88;;
45296;SDS011;31040;51.622;10.420;2022-09-09T13:40:35;2.70;;;0.70;;
45296;SDS011;31040;51.622;10.420;2022-09-09T13:43:02;2.55;;;0.82;;
45296;SDS011;31040;51.622;10.420;2022-09-09T13:45:31;1.98;;;0.60;;
45296;SDS011;31040;51.622;10.420;2022-09-09T13:48:08;1.92;;;0.80;;
45296;SDS011;31040;51.622;10.420;2022-09-09T13:50:35;3.33;;;0.90;;
45296;SDS011;31040;51.622;10.420;2022-09-09T13:53:03;2.70;;;0.80;;
45296;SDS011;31040;51.622;10.420;2022-09-09T13:55:30;0.70;;;0.68;;
45296;SDS011;31040;51.622;10.420;2022-09-09T13:57:58;0.93;;;0.70;;
45296;SDS011;31040;51.622;10.420;2022-09-09T14:00:30;2.38;;;1.15;;
45296;SDS011;31040;51.622;10.420;2022-09-09T14:02:58;2.92;;;1.05;;
45296;SDS011;31040;51.622;10.420;2022-09-09T14:05:28;1.08;;;0.70;;
45296;SDS011;31040;51.622;10.420;2022-09-09T14:07:57;3.75;;;1.20;;
45296;SDS011;31040;51.622;10.420;2022-09-09T14:10:24;2.15;;;1.05;;
45296;SDS011;31040;51.622;10.420;2022-09-09T14:12:52;4.38;;;1.45;;
45296;SDS011;31040;51.622;10.420;2022-09-09T14:15:19;2.35;;;1.42;;
45296;SDS011;31040;51.622;10.420;2022-09-09T14:17:48;3.95;;;1.48;;
45296;SDS011;31040;51.622;10.420;2022-09-09T14:20:15;5.60;;;2.33;;
45296;SDS011;31040;51.622;10.420;2022-09-09T14:22:44;2.10;;;1.50;;
45296;SDS011;31040;51.622;10.420;2022-09-09T14:25:11;1.08;;;0.98;;
45296;SDS011;31040;51.622;10.420;2022-09-09T14:27:39;3.65;;;1.00;;
45296;SDS011;31040;51.622;10.420;2022-09-09T14:30:08;4.18;;;1.20;;
45296;SDS011;31040;51.622;10.420;2022-09-09T14:32:36;2.53;;;1.00;;
45296;SDS011;31040;51.622;10.420;2022-09-09T14:35:03;3.90;;;1.10;;
45296;SDS011;31040;51.622;10.420;2022-09-09T14:37:33;2.08;;;1.20;;
45296;SDS011;31040;51.622;10.420;2022-09-09T14:40:01;3.53;;;0.90;;
45296;SDS011;31040;51.622;10.420;2022-09-09T14:42:28;3.70;;;0.80;;
45296;SDS011;31040;51.622;10.420;2022-09-09T14:44:56;1.83;;;0.90;;
45296;SDS011;31040;51.622;10.420;2022-09-09T14:47:23;3.22;;;1.17;;
45296;SDS011;31040;51.622;10.420;2022-09-09T14:49:52;2.35;;;0.90;;
45296;SDS011;31040;51.622;10.420;2022-09-09T14:52:20;1.38;;;0.70;;
45296;SDS011;31040;51.622;10.420;2022-09-09T14:54:47;1.15;;;0.90;;
45296;SDS011;31040;51.622;10.420;2022-09-09T14:57:15;1.63;;;1.10;;
45296;SDS011;31040;51.622;10.420;2022-09-09T14:59:43;2.13;;;1.00;;
45296;SDS011;31040;51.622;10.420;2022-09-09T15:02:10;2.08;;;1.35;;
45296;SDS011;31040;51.622;10.420;2022-09-09T15:04:40;3.65;;;1.00;;
45296;SDS011;31040;51.622;10.420;2022-09-09T15:07:07;3.35;;;1.00;;
45296;SDS011;31040;51.622;10.420;2022-09-09T15:09:35;2.33;;;0.90;;
45296;SDS011;31040;51.622;10.420;2022-09-09T15:12:03;4.85;;;0.90;;
45296;SDS011;31040;51.622;10.420;2022-09-09T15:14:30;3.47;;;1.35;;
45296;SDS011;31040;51.622;10.420;2022-09-09T15:16:58;1.42;;;0.70;;
45296;SDS011;31040;51.622;10.420;2022-09-09T15:19:27;2.05;;;0.82;;
45296;SDS011;31040;51.622;10.420;2022-09-09T15:21:54;2.45;;;0.65;;
45296;SDS011;31040;51.622;10.420;2022-09-09T15:24:22;2.40;;;0.82;;
45296;SDS011;31040;51.622;10.420;2022-09-09T15:26:49;2.35;;;0.57;;
45296;SDS011;31040;51.622;10.420;2022-09-09T15:29:16;1.88;;;0.60;;
45296;SDS011;31040;51.622;10.420;2022-09-09T15:31:45;3.40;;;0.82;;
45296;SDS011;31040;51.622;10.420;2022-09-09T15:34:13;2.33;;;1.17;;
45296;SDS011;31040;51.622;10.420;2022-09-09T15:36:41;1.65;;;0.82;;
45296;SDS011;31040;51.622;10.420;2022-09-09T15:39:10;3.63;;;1.20;;
45296;SDS011;31040;51.622;10.420;2022-09-09T15:41:42;1.67;;;0.63;;
45296;SDS011;31040;51.622;10.420;2022-09-09T15:44:10;1.67;;;0.60;;
45296;SDS011;31040;51.622;10.420;2022-09-09T15:49:11;3.40;;;0.65;;
45296;SDS011;31040;51.622;10.420;2022-09-09T15:51:40;1.30;;;0.80;;
45296;SDS011;31040;51.622;10.420;2022-09-09T15:54:13;1.50;;;1.00;;
45296;SDS011;31040;51.622;10.420;2022-09-09T15:56:43;1.60;;;0.73;;
45296;SDS011;31040;51.622;10.420;2022-09-09T15:59:11;0.50;;;0.50;;
45296;SDS011;31040;51.622;10.420;2022-09-09T16:01:41;0.95;;;0.85;;
45296;SDS011;31040;51.622;10.420;2022-09-09T16:04:10;2.38;;;0.80;;
45296;SDS011;31040;51.622;10.420;2022-09-09T16:06:38;1.20;;;0.77;;
45296;SDS011;31040;51.622;10.420;2022-09-09T16:09:05;1.60;;;0.60;;
45296;SDS011;31040;51.622;10.420;2022-09-09T16:11:34;1.00;;;0.73;;
45296;SDS011;31040;51.622;10.420;2022-09-09T16:14:02;1.58;;;0.68;;
45296;SDS011;31040;51.622;10.420;2022-09-09T16:16:30;2.50;;;0.90;;
45296;SDS011;31040;51.622;10.420;2022-09-09T16:18:58;1.05;;;0.80;;
45296;SDS011;31040;51.622;10.420;2022-09-09T16:21:31;3.03;;;0.98;;
45296;SDS011;31040;51.622;10.420;2022-09-09T16:23:59;2.58;;;0.80;;
45296;SDS011;31040;51.622;10.420;2022-09-09T16:26:27;1.88;;;0.70;;
45296;SDS011;31040;51.622;10.420;2022-09-09T16:28:54;1.13;;;0.70;;
45296;SDS011;31040;51.622;10.420;2022-09-09T16:31:22;0.82;;;0.80;;
45296;SDS011;31040;51.622;10.420;2022-09-09T16:33:50;0.95;;;0.60;;
45296;SDS011;31040;51.622;10.420;2022-09-09T16:36:22;1.73;;;0.80;;
45296;SDS011;31040;51.622;10.420;2022-09-09T16:38:57;1.08;;;0.98;;
45296;SDS011;31040;51.622;10.420;2022-09-09T16:43:55;2.15;;;1.23;;
45296;SDS011;31040;51.622;10.420;2022-09-09T16:46:23;1.52;;;0.80;;
45296;SDS011;31040;51.622;10.420;2022-09-09T16:48:51;1.58;;;0.68;;
45296;SDS011;31040;51.622;10.420;2022-09-09T16:51:23;2.45;;;0.80;;
45296;SDS011;31040;51.622;10.420;2022-09-09T16:53:51;1.77;;;0.73;;